Terminal Aerodrome Forecast
Issued by NWS

Home | Current Version | Previous Version | Text Only | Print | Product List | Glossary On
Versions: 1 2 3 4 5 6 7 8 9 10 11 12 13 14 15 16 17 18 19 20 21 22 23 24
000
FTUS43 KGRR 211143
TAFJXN
TAF
KJXN 211143Z 2112/2212 09005KT 6SM BR VCSH SCT005 BKN150
     FM211600 10008KT 6SM -SHRA BR OVC035
     FM211900 11008KT 5SM -RA BR OVC015
     FM212100 11008KT 2SM RA BR OVC009
     FM220100 11008KT 4SM -RA BR OVC007
     FM220900 14004KT 1 1/2SM -DZ OVC003=

USA.gov is the U.S. government's official web portal to all federal, state and local government web resources and services.